Time;durP1;ratioP1;P1;durP2;ratioP2;P2;SDS_P1;SDS_P2;PMS_P1;PMS_P2;Temp;Humidity;BMP_temperature;BMP_pressure;BME280_temperature;BME280_humidity;BME280_pressure;Samples;Min_cycle;Max_cycle;Signal;HPM_P1;HPM_P2
2022/02/22 00:04:16;;;;;;;7.10;3.40;;;;;;;3.75;67.99;98104.27;212993;1277;140161;-72
2022/02/22 00:09:20;;;;;;;6.60;2.60;;;;;;;3.71;68.31;98119.20;213382;1276;140520;-74
2022/02/22 00:14:24;;;;;;;6.60;2.60;;;;;;;3.67;68.25;98133.35;213451;1274;138686;-75
2022/02/22 00:19:29;;;;;;;4.50;3.10;;;;;;;3.64;68.65;98138.58;213637;1276;139283;-72
2022/02/22 00:24:34;;;;;;;5.20;2.90;;;;;;;3.61;68.90;98140.65;213714;1274;140307;-70
2022/02/22 00:29:39;;;;;;;6.30;3.00;;;;;;;3.58;69.09;98148.05;213740;1274;140392;-72
2022/02/22 00:34:45;;;;;;;9.70;4.60;;;;;;;3.53;69.63;98160.00;214128;1274;140578;-72
2022/02/22 00:39:50;;;;;;;8.50;4.20;;;;;;;3.45;70.09;98168.30;213692;1274;139661;-71
2022/02/22 00:44:54;;;;;;;6.00;3.40;;;;;;;3.40;70.55;98175.02;212805;1276;139825;-72
2022/02/22 00:49:59;;;;;;;6.00;3.70;;;;;;;3.35;70.60;98177.97;214397;1276;141300;-71
2022/02/22 00:55:04;;;;;;;12.40;3.90;;;;;;;3.33;71.05;98182.04;215385;1274;140244;-76
2022/02/22 01:00:09;;;;;;;4.60;2.40;;;;;;;3.30;71.57;98180.38;213693;1276;141717;-71
2022/02/22 01:05:14;;;;;;;7.20;3.50;;;;;;;3.24;72.04;98187.52;215228;1274;140170;-70
2022/02/22 01:10:17;;;;;;;3.40;3.10;;;;;;;3.16;72.20;98191.23;215900;1274;139699;-73
2022/02/22 01:15:21;;;;;;;6.10;3.40;;;;;;;3.13;72.82;98208.73;213749;1274;139801;-75
2022/02/22 01:20:25;;;;;;;5.00;2.80;;;;;;;3.07;72.97;98218.90;215622;1274;139510;-73
2022/02/22 01:25:29;;;;;;;3.50;3.10;;;;;;;3.01;73.59;98225.88;215850;1274;140095;-72
2022/02/22 01:30:33;;;;;;;6.10;3.00;;;;;;;3.01;73.51;98239.81;215706;1276;140625;-69
2022/02/22 01:35:40;;;;;;;4.80;3.50;;;;;;;3.02;73.89;98240.08;216003;1274;139576;-72
2022/02/22 01:40:45;;;;;;;3.90;3.00;;;;;;;3.07;74.05;98238.42;213356;1274;140050;-68
2022/02/22 01:45:50;;;;;;;5.20;3.60;;;;;;;3.09;74.30;98245.73;213408;1276;139524;-74
2022/02/22 01:50:54;;;;;;;4.70;2.80;;;;;;;3.10;74.43;98253.98;214275;1274;140629;-74
2022/02/22 01:55:57;;;;;;;3.50;2.70;;;;;;;3.12;74.37;98269.98;215081;1274;141411;-74
2022/02/22 02:01:01;;;;;;;5.10;4.40;;;;;;;3.13;74.23;98278.65;214140;1274;151172;-73
2022/02/22 02:06:06;;;;;;;8.90;7.40;;;;;;;3.14;74.41;98288.59;214273;1274;139747;-74
2022/02/22 02:11:10;;;;;;;4.20;3.30;;;;;;;3.16;74.57;98290.48;214927;1274;151498;-72
2022/02/22 02:16:14;;;;;;;3.90;3.40;;;;;;;3.14;74.45;98299.86;213278;1274;140183;-73
2022/02/22 02:21:19;;;;;;;3.20;2.90;;;;;;;3.13;74.29;98308.50;213897;1274;141215;-70
2022/02/22 02:26:23;;;;;;;3.60;2.70;;;;;;;3.10;74.19;98320.80;213724;1274;139818;-72
2022/02/22 02:31:27;;;;;;;2.70;2.50;;;;;;;3.10;74.28;98326.76;212661;1276;1000282;-71
2022/02/22 02:36:33;;;;;;;3.00;2.40;;;;;;;3.08;73.92;98332.70;213957;1274;139428;-72
2022/02/22 02:41:36;;;;;;;2.60;2.00;;;;;;;3.07;73.79;98337.89;213759;1276;139689;-69
2022/02/22 02:46:41;;;;;;;1.80;1.50;;;;;;;3.09;73.80;98342.08;213615;1274;141432;-73
2022/02/22 02:51:46;;;;;;;3.50;2.00;;;;;;;3.07;73.56;98345.67;213643;1276;140574;-74
2022/02/22 02:56:50;;;;;;;1.20;1.20;;;;;;;3.07;73.71;98357.79;214286;1274;140228;-73
2022/02/22 03:01:59;;;;;;;3.00;2.00;;;;;;;3.05;73.55;98366.39;215078;1274;139864;-74
2022/02/22 03:07:04;;;;;;;3.80;2.10;;;;;;;3.04;73.64;98375.00;213202;1274;140062;-76
2022/02/22 03:12:08;;;;;;;1.80;1.20;;;;;;;3.02;73.29;98382.33;214403;1275;140181;-71
2022/02/22 03:17:12;;;;;;;3.30;2.30;;;;;;;2.97;73.34;98382.27;214446;1276;139561;-78
2022/02/22 03:22:16;;;;;;;2.00;1.60;;;;;;;2.91;73.61;98390.35;215696;1276;140685;-76
2022/02/22 03:27:19;;;;;;;2.90;1.80;;;;;;;2.92;74.25;98397.48;215673;1276;140803;-76
2022/02/22 03:32:23;;;;;;;5.40;1.50;;;;;;;2.93;73.81;98400.95;214568;1276;140252;-70
2022/02/22 03:37:27;;;;;;;0.90;0.90;;;;;;;2.93;73.89;98409.36;213597;1276;232227;-73
2022/02/22 03:42:30;;;;;;;1.70;1.50;;;;;;;2.92;73.88;98416.23;214437;1276;140278;-70
2022/02/22 03:47:34;;;;;;;5.60;2.20;;;;;;;2.90;73.92;98430.33;214877;1276;141598;-73
2022/02/22 03:52:38;;;;;;;2.50;2.30;;;;;;;2.90;74.56;98436.45;214227;1276;139551;-74
2022/02/22 03:57:43;;;;;;;2.40;1.70;;;;;;;2.90;74.52;98445.64;213850;1276;139647;-72
2022/02/22 04:02:47;;;;;;;2.70;1.50;;;;;;;2.88;74.31;98455.33;214019;1276;140274;-71
2022/02/22 04:07:51;;;;;;;5.50;1.80;;;;;;;2.87;74.59;98465.66;212895;1276;141884;-69
2022/02/22 04:12:55;;;;;;;5.00;2.80;;;;;;;2.86;74.77;98469.67;213393;1276;139954;-68
2022/02/22 04:17:59;;;;;;;3.70;1.90;;;;;;;2.85;74.91;98474.80;213370;1276;140228;-74
2022/02/22 04:23:03;;;;;;;4.10;1.70;;;;;;;2.83;75.03;98480.69;213045;1276;140170;-69
2022/02/22 04:28:07;;;;;;;7.60;2.50;;;;;;;2.81;75.34;98488.39;214777;1276;140218;-70
2022/02/22 04:33:12;;;;;;;5.20;2.70;;;;;;;2.80;75.43;98497.34;214115;1276;140573;-69
2022/02/22 04:38:17;;;;;;;5.00;2.90;;;;;;;2.77;75.58;98500.85;214016;1276;140621;-71
2022/02/22 04:43:22;;;;;;;5.30;2.60;;;;;;;2.75;75.77;98508.80;213256;1276;140900;-69
2022/02/22 04:48:26;;;;;;;4.80;3.50;;;;;;;2.75;76.00;98514.64;214153;1276;140580;-67
2022/02/22 04:53:31;;;;;;;6.80;5.60;;;;;;;2.75;76.09;98520.27;214524;1275;140257;-72
2022/02/22 04:58:35;;;;;;;8.60;7.20;;;;;;;2.72;76.23;98524.74;214176;1276;141292;-69
2022/02/22 05:03:38;;;;;;;5.60;5.00;;;;;;;2.68;76.44;98534.81;215371;1276;140296;-70
2022/02/22 05:08:42;;;;;;;6.80;4.50;;;;;;;2.71;76.68;98541.16;213005;1276;159819;-74
2022/02/22 05:13:46;;;;;;;4.20;3.80;;;;;;;2.74;76.78;98543.08;213136;1276;140626;-69
2022/02/22 05:18:49;;;;;;;4.20;2.60;;;;;;;2.75;76.90;98556.58;214827;1275;140461;-75
2022/02/22 05:23:53;;;;;;;3.90;3.50;;;;;;;2.75;76.93;98558.60;215879;1276;141202;-78
2022/02/22 05:28:56;;;;;;;8.20;4.10;;;;;;;2.78;77.11;98568.36;215133;1276;139638;-71
2022/02/22 05:34:01;;;;;;;3.60;3.30;;;;;;;2.82;77.14;98575.51;214436;1276;141344;-78
2022/02/22 05:39:05;;;;;;;4.90;1.90;;;;;;;2.86;77.29;98588.23;215720;1275;141565;-71
2022/02/22 05:44:10;;;;;;;4.90;3.20;;;;;;;2.87;77.42;98595.11;215075;1276;140813;-70
2022/02/22 05:49:14;;;;;;;4.90;2.90;;;;;;;2.88;77.32;98606.73;213833;1276;141498;-72
2022/02/22 05:54:19;;;;;;;5.60;3.50;;;;;;;2.89;77.56;98612.76;214641;1276;141645;-71
2022/02/22 05:59:25;;;;;;;7.70;3.30;;;;;;;2.89;77.88;98623.65;212782;1276;140737;-70
2022/02/22 06:04:30;;;;;;;5.80;2.80;;;;;;;2.89;77.81;98636.90;214795;1277;153667;-73
2022/02/22 06:09:38;;;;;;;7.70;3.70;;;;;;;2.92;77.85;98645.10;213971;1277;139702;-70
2022/02/22 06:14:43;;;;;;;5.10;3.60;;;;;;;2.95;77.93;98644.31;213605;1276;140860;-71
2022/02/22 06:19:49;;;;;;;3.70;3.30;;;;;;;2.97;78.14;98656.25;213351;1276;141424;-71
2022/02/22 06:24:53;;;;;;;4.00;3.50;;;;;;;3.00;77.91;98666.84;213157;1276;141086;-71
2022/02/22 06:29:59;;;;;;;5.10;2.40;;;;;;;3.04;78.12;98680.39;214062;1276;140880;-70
2022/02/22 06:35:03;;;;;;;10.40;2.80;;;;;;;3.10;78.21;98694.02;213806;1276;140465;-71
2022/02/22 06:40:08;;;;;;;5.80;4.80;;;;;;;3.09;78.30;98702.95;214667;1276;140445;-66
2022/02/22 06:45:13;;;;;;;6.60;3.50;;;;;;;3.09;78.25;98710.84;212959;1276;141549;-71
2022/02/22 06:50:18;;;;;;;7.40;4.10;;;;;;;3.12;78.49;98727.92;214890;1276;141406;-72
2022/02/22 06:55:21;;;;;;;6.00;3.70;;;;;;;3.14;78.53;98736.59;213827;1276;207733;-69
2022/02/22 07:00:25;;;;;;;10.30;4.60;;;;;;;3.17;78.63;98743.94;215585;1276;140958;-70
2022/02/22 07:05:28;;;;;;;3.20;2.30;;;;;;;3.20;79.06;98746.16;214033;1275;140660;-72
2022/02/22 07:10:33;;;;;;;6.50;4.50;;;;;;;3.22;78.63;98750.73;212698;1276;141946;-69
2022/02/22 07:15:37;;;;;;;9.60;4.50;;;;;;;3.23;78.93;98751.81;214997;1276;140663;-66
2022/02/22 07:20:42;;;;;;;5.60;4.00;;;;;;;3.27;79.04;98762.41;214742;1276;140389;-75
2022/02/22 07:25:47;;;;;;;7.80;3.70;;;;;;;3.35;79.08;98768.70;215727;1277;140110;-73
2022/02/22 07:30:51;;;;;;;9.40;5.80;;;;;;;3.38;79.28;98774.85;215981;1276;141728;-74
2022/02/22 07:35:56;;;;;;;6.60;4.20;;;;;;;3.42;79.30;98783.42;216027;1276;141491;-74
2022/02/22 07:41:00;;;;;;;6.20;4.70;;;;;;;3.55;79.31;98793.52;215770;1276;140867;-74
2022/02/22 07:46:04;;;;;;;4.80;4.10;;;;;;;4.12;79.75;98802.48;215651;1277;141061;-73
2022/02/22 07:51:10;;;;;;;11.80;4.90;;;;;;;4.65;79.12;98811.44;214997;1276;139865;-74
2022/02/22 07:56:16;;;;;;;13.40;4.30;;;;;;;4.79;78.29;98820.89;215409;1276;141888;-72
2022/02/22 08:01:23;;;;;;;8.00;3.40;;;;;;;4.93;78.21;98827.59;213329;1276;143215;-74
2022/02/22 08:06:28;;;;;;;6.50;2.60;;;;;;;5.03;77.97;98829.88;212994;1277;140608;-73
2022/02/22 08:11:32;;;;;;;5.00;3.10;;;;;;;5.26;77.87;98832.73;213932;1277;139841;-75
2022/02/22 08:16:36;;;;;;;13.30;4.80;;;;;;;5.63;77.91;98838.80;215365;1276;141319;-78
2022/02/22 08:21:40;;;;;;;5.90;3.40;;;;;;;6.04;77.46;98847.78;214170;1276;140973;-76
2022/02/22 08:26:45;;;;;;;6.00;3.00;;;;;;;6.33;76.71;98854.83;214124;1276;138859;-77
2022/02/22 08:31:50;;;;;;;6.30;3.00;;;;;;;6.28;76.27;98866.68;213773;1277;139827;-68
2022/02/22 08:36:56;;;;;;;8.80;4.40;;;;;;;6.40;76.01;98874.53;214170;1276;139806;-66
2022/02/22 08:42:06;;;;;;;2.90;2.20;;;;;;;6.48;75.90;98882.42;214441;1277;139679;-75
2022/02/22 08:47:11;;;;;;;4.60;2.70;;;;;;;6.39;75.22;98900.86;213924;1277;139390;-73
2022/02/22 08:52:19;;;;;;;7.10;3.30;;;;;;;6.23;75.12;98913.40;214283;1277;143463;-76
2022/02/22 08:57:26;;;;;;;2.50;2.00;;;;;;;6.10;74.87;98918.84;213733;1276;139885;-70
2022/02/22 09:02:34;;;;;;;6.70;3.20;;;;;;;6.01;74.59;98926.77;213750;1277;142049;-71
2022/02/22 09:07:39;;;;;;;11.80;3.50;;;;;;;6.10;74.59;98932.98;214187;1277;139970;-73
2022/02/22 09:12:45;;;;;;;4.00;2.20;;;;;;;6.34;74.45;98937.61;214864;1276;140415;-72
2022/02/22 09:17:51;;;;;;;5.20;2.40;;;;;;;6.48;74.04;98941.16;214770;1277;141216;-77
2022/02/22 09:22:59;;;;;;;3.50;3.20;;;;;;;6.55;73.63;98952.89;215394;1276;140583;-76
2022/02/22 09:28:08;;;;;;;4.40;3.00;;;;;;;6.52;73.32;98962.54;215570;1276;143023;-75
2022/02/22 09:33:13;;;;;;;3.10;2.00;;;;;;;6.42;73.04;98958.11;214398;1277;140920;-74
2022/02/22 09:38:18;;;;;;;3.60;1.40;;;;;;;6.25;73.00;98966.80;215661;1276;139599;-77
2022/02/22 09:43:23;;;;;;;2.90;2.00;;;;;;;6.14;72.60;98977.45;215885;1273;140730;-76
2022/02/22 09:48:28;;;;;;;6.10;1.90;;;;;;;6.11;72.79;98980.23;215067;1274;140720;-76
2022/02/22 09:53:32;;;;;;;5.40;2.70;;;;;;;6.09;72.94;98987.14;214493;1274;139950;-76
2022/02/22 09:58:39;;;;;;;6.20;2.60;;;;;;;6.08;72.65;98990.01;215676;1274;140436;-67
2022/02/22 10:03:43;;;;;;;3.40;1.90;;;;;;;6.10;72.72;98999.75;215432;1274;139831;-75
2022/02/22 10:08:53;;;;;;;7.20;2.00;;;;;;;6.30;72.79;99007.21;214395;1274;140284;-75
2022/02/22 10:14:02;;;;;;;2.90;1.70;;;;;;;6.39;72.37;99013.27;214660;1274;139573;-76
2022/02/22 10:19:07;;;;;;;3.70;2.10;;;;;;;6.34;72.17;99017.14;215184;1274;140364;-77
2022/02/22 10:24:13;;;;;;;5.10;1.80;;;;;;;6.36;72.29;99022.52;214036;1274;141024;-75
2022/02/22 10:29:25;;;;;;;6.10;2.10;;;;;;;6.30;72.36;99032.33;213491;1276;141460;-76
2022/02/22 10:34:33;;;;;;;3.70;2.40;;;;;;;6.11;72.30;99034.50;214249;1274;139785;-71
2022/02/22 10:39:37;;;;;;;4.40;3.90;;;;;;;6.03;72.15;99035.92;214336;1274;140371;-76
2022/02/22 10:44:42;;;;;;;4.70;3.00;;;;;;;6.00;72.46;99038.20;213330;1276;142988;-74
2022/02/22 10:49:49;;;;;;;7.70;3.60;;;;;;;6.01;72.31;99043.61;213007;1274;140910;-76
2022/02/22 10:55:01;;;;;;;7.60;2.80;;;;;;;6.01;72.36;99047.20;213522;1274;141359;-77
2022/02/22 11:00:08;;;;;;;6.70;3.80;;;;;;;6.12;72.62;99059.19;214072;1276;139518;-70
2022/02/22 11:05:14;;;;;;;7.50;4.00;;;;;;;6.32;72.65;99065.83;214741;1274;142025;-77
2022/02/22 11:10:25;;;;;;;4.10;2.80;;;;;;;6.43;72.66;99069.17;214330;1274;139288;-77
2022/02/22 11:15:37;;;;;;;3.20;2.90;;;;;;;6.47;72.08;99072.61;214486;1274;139749;-76
2022/02/22 11:20:43;;;;;;;4.30;2.30;;;;;;;6.49;72.22;99088.80;215378;1276;140341;-76
2022/02/22 11:25:49;;;;;;;6.90;3.00;;;;;;;6.46;72.02;99094.41;215189;1274;140866;-77
2022/02/22 11:31:04;;;;;;;3.00;1.70;;;;;;;6.49;72.10;99097.92;213995;1274;140142;-75
2022/02/22 11:36:09;;;;;;;4.50;1.80;;;;;;;6.57;72.55;99099.10;214450;1274;140736;-75
2022/02/22 11:41:20;;;;;;;7.40;2.90;;;;;;;6.55;72.20;99103.72;215107;1274;141497;-76
2022/02/22 11:46:45;;;;;;;2.90;1.90;;;;;;;6.55;72.06;99112.13;215795;1274;140475;-73
2022/02/22 11:51:56;;;;;;;2.40;1.90;;;;;;;6.47;71.86;99113.91;215221;1274;140240;-75
2022/02/22 11:57:15;;;;;;;7.00;2.50;;;;;;;6.66;71.93;99122.13;214639;1274;141301;-76
2022/02/22 12:02:41;;;;;;;4.30;3.00;;;;;;;6.87;71.36;99122.93;215754;1274;139730;-80
2022/02/22 12:07:56;;;;;;;3.00;2.10;;;;;;;7.00;70.65;99130.13;214879;1274;140270;-75
2022/02/22 12:13:06;;;;;;;8.60;5.30;;;;;;;6.99;70.20;99136.09;214925;1274;140872;-75
2022/02/22 12:18:24;;;;;;;7.80;3.70;;;;;;;7.02;69.83;99136.41;213949;1274;140306;-75
2022/02/22 12:23:28;;;;;;;6.80;2.60;;;;;;;6.96;70.57;99137.80;214262;1274;139812;-70
2022/02/22 12:28:55;;;;;;;7.50;2.60;;;;;;;6.91;70.12;99150.19;213565;1274;139539;-68
2022/02/22 12:33:59;;;;;;;5.40;2.80;;;;;;;6.83;70.24;99153.14;214610;1274;141291;-73
2022/02/22 12:39:06;;;;;;;6.70;3.40;;;;;;;6.76;69.82;99162.81;213705;1274;141952;-74
2022/02/22 12:44:17;;;;;;;9.80;3.80;;;;;;;6.55;70.47;99173.66;213457;1274;139438;-72
2022/02/22 12:49:24;;;;;;;6.30;2.50;;;;;;;6.35;70.81;99190.23;213594;1274;150664;-74
2022/02/22 12:54:29;;;;;;;9.70;4.00;;;;;;;6.22;71.32;99198.51;213327;1274;141417;-74
2022/02/22 12:59:38;;;;;;;7.50;3.30;;;;;;;6.10;71.29;99219.11;213971;1274;141500;-71
2022/02/22 13:04:42;;;;;;;4.70;2.40;;;;;;;5.81;71.39;99233.02;213341;1276;141632;-74
2022/02/22 13:09:49;;;;;;;6.50;2.80;;;;;;;5.57;71.88;99238.32;214858;1274;141535;-73
2022/02/22 13:14:55;;;;;;;3.30;2.40;;;;;;;5.33;72.06;99246.24;213744;1274;141717;-71
2022/02/22 13:20:01;;;;;;;6.20;2.90;;;;;;;5.26;72.70;99251.29;212944;1274;141207;-67
2022/02/22 13:25:12;;;;;;;7.20;3.60;;;;;;;5.24;73.14;99259.17;212885;1274;140840;-73
2022/02/22 13:30:20;;;;;;;5.90;2.20;;;;;;;5.25;73.35;99263.08;214041;1274;140798;-74
2022/02/22 13:35:36;;;;;;;12.70;5.40;;;;;;;5.28;73.58;99273.35;214974;1277;140432;-76
2022/02/22 13:41:11;;;;;;;8.00;3.30;;;;;;;5.42;73.85;99275.48;213028;1274;141047;-73
2022/02/22 13:46:15;;;;;;;9.50;3.40;;;;;;;5.56;73.59;99279.08;214119;1274;141532;-74
2022/02/22 13:51:19;;;;;;;7.50;2.50;;;;;;;5.68;73.33;99288.48;215891;1274;139277;-77
2022/02/22 13:56:24;;;;;;;7.50;2.90;;;;;;;5.76;73.08;99291.38;214305;1274;140297;-75
2022/02/22 14:01:28;;;;;;;4.50;2.30;;;;;;;5.77;72.87;99305.00;215153;1274;142547;-77
2022/02/22 14:06:33;;;;;;;8.60;3.70;;;;;;;5.67;72.67;99318.96;215898;1274;139650;-76
2022/02/22 14:11:46;;;;;;;7.10;2.80;;;;;;;5.58;73.01;99320.84;215595;1274;139919;-76
2022/02/22 14:16:50;;;;;;;6.90;2.80;;;;;;;5.52;73.09;99328.23;214863;1274;140017;-78
2022/02/22 14:21:55;;;;;;;5.90;3.70;;;;;;;5.52;73.13;99332.06;214867;1274;140916;-75
2022/02/22 14:26:59;;;;;;;13.00;3.40;;;;;;;5.50;73.04;99341.47;215011;1274;140196;-76
2022/02/22 14:32:03;;;;;;;10.00;3.70;;;;;;;5.43;73.23;99340.05;213220;1274;486812;-74
2022/02/22 14:37:06;;;;;;;7.00;3.30;;;;;;;5.44;73.47;99346.60;213047;1274;139799;-73
2022/02/22 14:42:10;;;;;;;8.30;2.80;;;;;;;5.47;73.34;99346.87;213241;1277;139302;-74
2022/02/22 14:47:18;;;;;;;9.20;3.90;;;;;;;5.39;73.45;99347.91;214484;1274;139085;-75
2022/02/22 14:52:22;;;;;;;9.00;3.90;;;;;;;5.27;73.06;99358.61;214297;1274;139357;-76
2022/02/22 14:57:43;;;;;;;13.40;3.10;;;;;;;5.25;73.22;99366.83;213145;1274;140111;-72
2022/02/22 15:02:47;;;;;;;13.30;3.40;;;;;;;5.27;73.09;99369.67;213707;1274;140583;-77
2022/02/22 15:07:51;;;;;;;11.80;4.10;;;;;;;5.26;72.93;99376.20;213414;1274;141454;-74
2022/02/22 15:12:58;;;;;;;11.20;3.00;;;;;;;5.24;72.86;99376.75;214195;1274;139992;-77
2022/02/22 15:18:03;;;;;;;14.10;5.60;;;;;;;5.22;72.60;99378.70;214198;1274;139220;-75
2022/02/22 15:23:08;;;;;;;13.60;3.00;;;;;;;5.17;72.98;99380.73;214248;1274;139530;-76
2022/02/22 15:28:12;;;;;;;10.30;3.20;;;;;;;5.18;72.82;99386.52;215016;1274;139679;-76
2022/02/22 15:33:18;;;;;;;8.10;2.70;;;;;;;5.13;72.67;99388.23;214361;1274;141960;-75
2022/02/22 15:38:27;;;;;;;9.10;3.80;;;;;;;5.08;72.54;99399.25;214100;1272;138922;-74
2022/02/22 15:43:32;;;;;;;10.30;4.30;;;;;;;5.00;72.57;99406.09;215127;1274;140930;-76
2022/02/22 15:48:36;;;;;;;7.10;3.20;;;;;;;4.96;72.35;99416.66;215950;1276;141506;-76
2022/02/22 15:53:40;;;;;;;10.50;6.10;;;;;;;4.92;72.30;99420.03;215723;1274;139980;-76
2022/02/22 15:58:44;;;;;;;6.40;3.20;;;;;;;4.82;72.23;99421.96;215736;1274;139771;-76
2022/02/22 16:03:50;;;;;;;6.50;3.40;;;;;;;4.68;72.18;99423.08;215744;1274;141032;-75
2022/02/22 16:08:54;;;;;;;7.50;3.40;;;;;;;4.60;71.96;99425.44;215679;1274;142257;-77
2022/02/22 16:13:58;;;;;;;7.80;3.50;;;;;;;4.44;71.94;99431.65;215626;1274;139906;-71
2022/02/22 16:19:02;;;;;;;9.30;6.90;;;;;;;4.29;72.02;99433.34;214160;1274;139821;-74
2022/02/22 16:24:06;;;;;;;8.80;5.50;;;;;;;4.23;71.86;99438.78;213339;1274;140434;-73
2022/02/22 16:29:11;;;;;;;11.00;5.40;;;;;;;4.15;72.12;99438.77;214306;1274;140510;-72
2022/02/22 16:34:19;;;;;;;10.70;4.80;;;;;;;4.12;72.29;99451.38;214330;1274;150541;-73
2022/02/22 16:39:26;;;;;;;6.40;3.20;;;;;;;4.06;72.33;99458.38;213472;1274;140749;-75
2022/02/22 16:44:31;;;;;;;4.20;3.50;;;;;;;4.01;72.47;99471.02;212994;1274;138940;-75
2022/02/22 16:49:36;;;;;;;4.70;2.90;;;;;;;3.93;72.45;99477.83;215235;1274;149959;-76
2022/02/22 16:54:41;;;;;;;7.90;4.20;;;;;;;3.92;72.94;99485.62;213858;1274;140349;-73
2022/02/22 16:59:45;;;;;;;13.40;6.20;;;;;;;3.91;73.30;99496.61;213371;1274;140914;-74
2022/02/22 17:04:49;;;;;;;9.10;4.90;;;;;;;3.85;73.30;99503.84;213083;1274;142567;-73
2022/02/22 17:09:53;;;;;;;8.20;4.60;;;;;;;3.78;73.61;99506.07;214160;1274;141638;-76
2022/02/22 17:14:57;;;;;;;9.30;4.30;;;;;;;3.69;73.69;99516.91;213178;1274;140537;-74
2022/02/22 17:20:02;;;;;;;12.30;5.70;;;;;;;3.63;73.90;99526.82;214213;1276;140676;-74
2022/02/22 17:25:08;;;;;;;11.80;5.90;;;;;;;3.55;73.98;99531.31;214160;1274;139062;-75
2022/02/22 17:30:13;;;;;;;13.40;5.00;;;;;;;3.49;74.00;99524.52;215078;1274;140166;-75
2022/02/22 17:35:17;;;;;;;7.50;4.40;;;;;;;3.45;74.06;99519.24;213245;1274;142037;-74
2022/02/22 17:40:21;;;;;;;8.60;5.70;;;;;;;3.40;74.46;99517.31;214106;1274;140189;-73
2022/02/22 17:45:25;;;;;;;13.40;5.20;;;;;;;3.34;74.57;99517.20;214210;1274;143291;-74
2022/02/22 17:50:29;;;;;;;11.40;6.00;;;;;;;3.27;74.74;99519.71;213192;1274;140648;-74
2022/02/22 17:55:33;;;;;;;8.80;4.20;;;;;;;3.19;74.74;99527.11;214551;1274;140882;-75
2022/02/22 18:00:39;;;;;;;13.70;5.90;;;;;;;3.13;74.79;99525.76;215331;1276;150994;-74
2022/02/22 18:05:47;;;;;;;10.40;5.70;;;;;;;3.06;74.94;99522.27;215997;1274;139914;-77
2022/02/22 18:10:51;;;;;;;6.60;4.40;;;;;;;3.00;74.98;99525.92;215325;1274;141572;-74
2022/02/22 18:15:54;;;;;;;13.00;5.20;;;;;;;2.90;74.70;99529.09;214558;1276;139108;-72
2022/02/22 18:20:58;;;;;;;13.00;6.20;;;;;;;2.83;74.85;99535.91;216083;1274;140961;-76
2022/02/22 18:26:03;;;;;;;7.20;4.90;;;;;;;2.77;75.14;99538.23;215691;1274;141560;-73
2022/02/22 18:31:10;;;;;;;8.50;5.00;;;;;;;2.76;74.99;99543.13;214336;1274;141289;-73
2022/02/22 18:36:16;;;;;;;8.70;4.70;;;;;;;2.75;75.17;99544.95;213713;1274;142481;-74
2022/02/22 18:41:21;;;;;;;11.20;5.00;;;;;;;2.72;75.71;99546.67;213290;1273;139965;-74
2022/02/22 18:46:25;;;;;;;12.50;5.80;;;;;;;2.64;75.60;99550.44;212822;1276;162917;-72
2022/02/22 18:51:29;;;;;;;9.90;5.00;;;;;;;2.53;75.76;99555.79;213629;1274;141286;-72
2022/02/22 18:56:33;;;;;;;7.80;3.90;;;;;;;2.45;75.64;99562.46;213870;1274;140888;-72
2022/02/22 19:01:38;;;;;;;12.30;5.40;;;;;;;2.39;76.00;99570.74;213086;1276;141404;-73
2022/02/22 19:06:42;;;;;;;12.60;6.20;;;;;;;2.37;75.76;99566.55;214380;1274;142111;-69
2022/02/22 19:11:48;;;;;;;13.20;4.70;;;;;;;2.35;76.35;99569.17;213343;1274;140493;-73
2022/02/22 19:16:53;;;;;;;12.20;4.40;;;;;;;2.32;76.18;99570.46;213471;1275;151496;-73
2022/02/22 19:22:00;;;;;;;15.40;5.80;;;;;;;2.27;76.49;99568.59;214710;1274;140343;-76
2022/02/22 19:27:06;;;;;;;11.10;4.20;;;;;;;2.25;76.47;99570.20;214660;1274;141536;-73
2022/02/22 19:32:11;;;;;;;11.70;4.60;;;;;;;2.30;76.74;99568.62;213331;1274;140369;-73
2022/02/22 19:37:16;;;;;;;9.30;4.70;;;;;;;2.30;76.42;99573.55;212973;1276;141425;-71
2022/02/22 19:42:20;;;;;;;23.90;5.00;;;;;;;2.25;76.48;99576.01;214577;1272;140525;-72
2022/02/22 19:47:25;;;;;;;11.80;5.20;;;;;;;2.22;76.72;99569.24;214827;1274;152163;-73
2022/02/22 19:52:31;;;;;;;21.90;8.20;;;;;;;2.21;76.45;99569.52;213763;1276;142421;-72
2022/02/22 19:57:36;;;;;;;16.50;4.60;;;;;;;2.20;76.90;99565.66;214525;1274;139844;-73
2022/02/22 20:02:41;;;;;;;14.60;5.10;;;;;;;2.17;76.71;99567.53;215732;1274;141730;-73
2022/02/22 20:07:46;;;;;;;14.20;6.20;;;;;;;2.13;76.91;99569.08;214932;1274;140436;-72
2022/02/22 20:12:51;;;;;;;12.40;5.70;;;;;;;2.11;77.05;99569.70;215821;1274;140835;-72
2022/02/22 20:17:56;;;;;;;9.80;5.30;;;;;;;2.09;77.12;99566.23;215878;1276;140589;-74
2022/02/22 20:23:00;;;;;;;15.00;7.70;;;;;;;2.12;77.02;99563.00;215387;1274;140413;-70
2022/02/22 20:28:04;;;;;;;22.10;7.40;;;;;;;2.14;77.14;99565.10;212872;1274;141194;-71
2022/02/22 20:33:08;;;;;;;14.20;6.50;;;;;;;2.12;76.93;99560.78;214494;1274;140620;-71
2022/02/22 20:38:15;;;;;;;19.30;7.20;;;;;;;2.13;77.46;99566.69;214382;1274;140579;-71
2022/02/22 20:43:23;;;;;;;14.90;6.80;;;;;;;2.14;77.13;99566.36;213879;1274;141942;-72
2022/02/22 20:48:28;;;;;;;14.00;7.50;;;;;;;2.10;77.31;99559.42;215046;1276;139065;-73
2022/02/22 20:53:33;;;;;;;17.00;7.00;;;;;;;2.07;77.54;99552.63;213665;1274;141174;-73
2022/02/22 20:58:38;;;;;;;20.40;6.90;;;;;;;2.07;77.71;99557.56;214041;1274;141444;-71
2022/02/22 21:03:42;;;;;;;13.30;7.00;;;;;;;2.09;77.83;99566.67;213574;1274;140730;-73
2022/02/22 21:08:47;;;;;;;15.40;8.10;;;;;;;2.11;77.71;99563.59;213459;1274;141469;-73
2022/02/22 21:13:54;;;;;;;20.90;7.60;;;;;;;2.12;77.98;99563.36;212925;1274;141098;-71
2022/02/22 21:19:02;;;;;;;9.90;5.70;;;;;;;2.16;77.68;99561.92;213064;1274;143782;-74
2022/02/22 21:24:06;;;;;;;17.60;7.50;;;;;;;2.15;77.87;99555.65;215124;1276;140291;-73
2022/02/22 21:29:10;;;;;;;14.00;8.80;;;;;;;2.13;78.11;99561.19;214585;1274;139647;-75
2022/02/22 21:34:16;;;;;;;18.40;7.30;;;;;;;2.07;77.55;99555.70;213970;1277;140988;-68
2022/02/22 21:39:22;;;;;;;16.10;8.00;;;;;;;2.01;77.54;99552.96;213996;1274;141788;-75
2022/02/22 21:44:30;;;;;;;20.10;9.40;;;;;;;1.95;77.55;99550.23;214024;1274;141601;-77
2022/02/22 21:49:37;;;;;;;18.60;9.00;;;;;;;1.87;77.38;99544.92;213634;1273;140965;-74
2022/02/22 21:54:42;;;;;;;26.70;9.40;;;;;;;1.81;78.03;99547.41;213848;1274;141231;-73
2022/02/22 21:59:50;;;;;;;15.60;8.20;;;;;;;1.75;77.85;99545.15;215009;1274;141580;-76
2022/02/22 22:04:54;;;;;;;14.10;7.40;;;;;;;1.72;77.77;99547.61;215891;1274;140201;-77
2022/02/22 22:09:59;;;;;;;17.80;7.20;;;;;;;1.70;77.93;99547.34;216100;1274;140450;-76
2022/02/22 22:15:12;;;;;;;16.70;7.10;;;;;;;1.66;78.03;99539.78;215779;1277;140986;-77
2022/02/22 22:20:17;;;;;;;18.30;7.00;;;;;;;1.68;77.85;99537.17;214767;1274;140047;-74
2022/02/22 22:25:20;;;;;;;17.00;8.30;;;;;;;1.68;77.74;99527.66;215683;1274;140121;-74
2022/02/22 22:30:25;;;;;;;20.30;8.60;;;;;;;1.65;77.92;99518.33;215853;1274;140820;-69
2022/02/22 22:35:30;;;;;;;24.70;8.10;;;;;;;1.62;77.81;99513.55;215755;1274;139536;-70
2022/02/22 22:40:35;;;;;;;18.40;7.70;;;;;;;1.58;77.87;99510.64;214746;1274;139399;-73
2022/02/22 22:45:38;;;;;;;21.70;10.40;;;;;;;1.57;77.80;99502.38;214917;1274;139374;-74
2022/02/22 22:50:43;;;;;;;20.80;6.70;;;;;;;1.59;78.01;99491.00;214729;1274;140896;-75
2022/02/22 22:55:47;;;;;;;17.40;6.70;;;;;;;1.63;78.52;99487.54;215160;1274;139952;-75
2022/02/22 23:01:09;;;;;;;24.50;7.60;;;;;;;1.66;78.30;99483.63;213098;1274;141305;-74
2022/02/22 23:17:03;;;;;;;18.40;7.60;;;;;;;1.67;78.16;99463.02;213513;1276;143841;-76
2022/02/22 23:22:08;;;;;;;22.10;7.70;;;;;;;1.65;78.21;99462.35;214883;1276;140298;-74
2022/02/22 23:27:12;;;;;;;17.30;7.30;;;;;;;1.66;77.92;99455.05;213442;1277;140304;-73
2022/02/22 23:32:17;;;;;;;15.50;7.70;;;;;;;1.66;78.05;99452.58;213491;1277;140881;-71
2022/02/22 23:37:22;;;;;;;18.70;7.00;;;;;;;1.66;78.04;99440.21;215238;1277;140897;-71
2022/02/22 23:42:28;;;;;;;17.20;7.40;;;;;;;1.63;78.01;99428.05;214775;1276;140274;-77
2022/02/22 23:47:33;;;;;;;24.50;10.40;;;;;;;1.63;78.04;99420.08;213892;1277;140495;-75